createdAt,value
2023-01-13T03:59:37.404Z,56.91
2023-01-13T04:00:36.711Z,56.81
2023-01-13T04:01:36.909Z,57.20
2023-01-13T04:02:36.695Z,57.10
2023-01-13T04:03:36.726Z,57.20
2023-01-13T04:04:36.838Z,57.20
2023-01-13T04:05:36.670Z,57.39
2023-01-13T04:06:36.655Z,57.58
2023-01-13T04:07:36.663Z,57.29
2023-01-13T04:08:36.646Z,57.48
2023-01-13T04:09:36.846Z,57.68
2023-01-13T04:10:36.631Z,57.48
2023-01-13T04:11:36.631Z,57.58
2023-01-13T04:12:36.856Z,57.48
2023-01-13T04:13:37.330Z,57.48
2023-01-13T04:14:37.351Z,57.77
2023-01-13T04:15:37.478Z,57.58
2023-01-13T04:16:37.816Z,57.39
2023-01-13T04:17:37.358Z,57.68
2023-01-13T04:18:37.356Z,57.60
2023-01-13T04:19:37.342Z,57.68
2023-01-13T04:20:37.351Z,57.77
2023-01-13T04:21:37.365Z,57.51
2023-01-13T04:22:37.349Z,57.48
2023-01-13T04:23:37.356Z,57.29
2023-01-13T04:24:37.355Z,57.70
2023-01-13T04:25:37.367Z,57.70
2023-01-13T04:26:37.342Z,57.42
2023-01-13T04:27:37.365Z,57.51
2023-01-13T04:28:37.353Z,57.42
2023-01-13T04:29:37.344Z,57.42
2023-01-13T04:30:37.365Z,57.51
2023-01-13T04:31:37.360Z,57.51
2023-01-13T04:32:37.379Z,57.60
2023-01-13T04:33:37.347Z,57.42
2023-01-13T04:34:37.367Z,57.60
2023-01-13T04:35:37.352Z,57.80
2023-01-13T04:36:37.355Z,57.80
2023-01-13T04:37:37.365Z,57.80
2023-01-13T04:38:36.871Z,57.51
2023-01-13T04:39:35.487Z,57.42
2023-01-13T04:40:35.485Z,57.42
2023-01-13T04:41:35.495Z,57.32
2023-01-13T04:42:35.480Z,57.51
2023-01-13T04:43:35.477Z,57.80
2023-01-13T04:44:36.865Z,57.51
2023-01-13T04:45:36.467Z,57.60
2023-01-13T04:46:36.895Z,57.22
2023-01-13T04:47:36.456Z,57.42
2023-01-13T04:48:36.461Z,57.60
2023-01-13T04:49:36.438Z,57.60
2023-01-13T04:50:36.895Z,57.22
2023-01-13T04:51:36.874Z,57.22
2023-01-13T04:52:36.442Z,57.22
2023-01-13T04:53:37.372Z,57.22
2023-01-13T04:54:36.415Z,57.32
2023-01-13T04:55:37.387Z,57.22
2023-01-13T04:56:36.414Z,57.22
2023-01-13T04:57:37.377Z,56.84
2023-01-13T04:58:36.882Z,56.84
2023-01-13T04:59:37.381Z,57.03
2023-01-13T05:00:36.400Z,57.03
2023-01-13T05:01:37.546Z,57.03
2023-01-13T05:02:36.399Z,57.03
2023-01-13T05:03:36.924Z,57.03
2023-01-13T05:04:36.919Z,57.03
2023-01-13T05:05:36.877Z,56.74
2023-01-13T05:06:36.365Z,57.03
2023-01-13T05:07:36.397Z,56.84
2023-01-13T05:08:35.357Z,56.74
2023-01-13T05:09:35.352Z,56.87
2023-01-13T05:10:35.343Z,56.93
2023-01-13T05:11:35.367Z,56.84
2023-01-13T05:12:36.387Z,56.45
2023-01-13T05:13:35.348Z,56.77
2023-01-13T05:14:35.325Z,56.74
2023-01-13T05:15:36.476Z,56.45
2023-01-13T05:16:36.882Z,56.36
2023-01-13T05:17:36.311Z,56.74
2023-01-13T05:18:36.898Z,56.84
2023-01-13T05:19:36.314Z,56.65
2023-01-13T05:20:36.949Z,56.74
2023-01-13T05:21:36.290Z,56.65
2023-01-13T05:22:36.901Z,56.74
2023-01-13T05:23:36.886Z,56.55
2023-01-13T05:24:36.276Z,56.65
2023-01-13T05:25:36.891Z,56.65
2023-01-13T05:26:36.406Z,56.65
2023-01-13T05:27:36.890Z,56.45
2023-01-13T05:28:36.911Z,56.45
2023-01-13T05:29:36.895Z,56.36
2023-01-13T05:30:36.913Z,56.26
2023-01-13T05:31:36.893Z,56.55
2023-01-13T05:32:36.905Z,56.45
2023-01-13T05:33:36.894Z,56.65
2023-01-13T05:34:36.895Z,56.45
2023-01-13T05:35:36.941Z,56.36
2023-01-13T05:36:36.902Z,56.36
2023-01-13T05:37:36.903Z,56.38
2023-01-13T05:38:36.902Z,56.16
2023-01-13T05:39:36.412Z,56.36
2023-01-13T05:40:36.947Z,56.26
2023-01-13T05:41:36.900Z,56.26
2023-01-13T05:42:36.212Z,56.16
2023-01-13T05:43:36.196Z,56.45
2023-01-13T05:44:36.196Z,56.26
2023-01-13T05:45:36.192Z,56.16
2023-01-13T05:46:36.448Z,56.65
2023-01-13T05:47:36.906Z,56.16
2023-01-13T05:48:36.910Z,56.45
2023-01-13T05:49:36.936Z,56.29
2023-01-13T05:50:36.910Z,56.20
2023-01-13T05:51:36.951Z,56.20
2023-01-13T05:52:36.144Z,56.58
2023-01-13T05:53:36.926Z,56.55
2023-01-13T05:54:36.921Z,56.48
2023-01-13T05:55:36.916Z,56.67
2023-01-13T05:56:36.924Z,56.58
2023-01-13T05:57:36.946Z,56.29
2023-01-13T05:58:36.924Z,56.67
2023-01-13T05:59:36.927Z,56.38
2023-01-13T06:00:36.927Z,56.87
2023-01-13T06:01:37.005Z,56.48
2023-01-13T06:02:36.948Z,56.87
2023-01-13T06:03:36.953Z,56.38
2023-01-13T06:04:36.959Z,56.58
2023-01-13T06:05:36.937Z,56.00
2023-01-13T06:06:36.948Z,56.00
2023-01-13T06:07:36.955Z,56.48
2023-01-13T06:08:38.031Z,55.71
2023-01-13T06:09:36.436Z,56.20
2023-01-13T06:10:35.091Z,56.29
2023-01-13T06:11:35.077Z,56.10
2023-01-13T06:12:35.064Z,56.00
2023-01-13T06:13:36.477Z,56.20
2023-01-13T06:14:37.194Z,55.81
2023-01-13T06:15:35.055Z,55.90
2023-01-13T06:16:36.973Z,56.29
2023-01-13T06:17:35.041Z,56.00
2023-01-13T06:18:36.947Z,56.29
2023-01-13T06:19:35.025Z,55.62
2023-01-13T06:20:36.934Z,55.71
2023-01-13T06:21:35.018Z,55.90
2023-01-13T06:22:36.940Z,56.29
2023-01-13T06:23:37.481Z,55.81
2023-01-13T06:24:36.014Z,55.81
2023-01-13T06:25:36.940Z,55.71
2023-01-13T06:26:35.996Z,56.10
2023-01-13T06:27:36.956Z,56.48
2023-01-13T06:28:36.951Z,55.71
2023-01-13T06:29:34.988Z,55.52
2023-01-13T06:30:36.966Z,55.90
2023-01-13T06:31:36.980Z,55.52
2023-01-13T06:32:36.948Z,56.00
2023-01-13T06:33:36.960Z,56.00
2023-01-13T06:34:36.994Z,56.10
2023-01-13T06:35:36.953Z,55.81
2023-01-13T06:36:36.467Z,56.00
2023-01-13T06:37:36.457Z,55.90
2023-01-13T06:38:36.451Z,55.81
2023-01-13T06:39:36.015Z,55.71
2023-01-13T06:40:34.931Z,55.62
2023-01-13T06:41:36.459Z,55.43
2023-01-13T06:42:36.460Z,55.81
2023-01-13T06:43:35.925Z,55.52
2023-01-13T06:44:36.471Z,55.81
2023-01-13T06:45:34.911Z,55.71
2023-01-13T06:46:34.984Z,55.90
2023-01-13T06:47:36.471Z,55.43
2023-01-13T06:48:34.905Z,55.43
2023-01-13T06:49:34.894Z,55.52
2023-01-13T06:50:36.463Z,55.23
2023-01-13T06:51:36.477Z,55.43
2023-01-13T06:52:34.907Z,55.62
2023-01-13T06:53:34.883Z,55.62
2023-01-13T06:54:34.883Z,55.62
2023-01-13T06:55:34.982Z,55.52
2023-01-13T06:56:36.524Z,55.33
2023-01-13T06:57:36.479Z,55.33
2023-01-13T06:58:35.002Z,55.71
2023-01-13T06:59:34.904Z,55.23
2023-01-13T07:00:34.890Z,55.62
2023-01-13T07:01:34.987Z,55.71
2023-01-13T07:02:36.528Z,55.52
2023-01-13T07:03:36.470Z,55.43
2023-01-13T07:04:34.826Z,55.52
2023-01-13T07:05:36.483Z,55.33
2023-01-13T07:06:36.475Z,55.62
2023-01-13T07:07:36.501Z,55.33
2023-01-13T07:08:36.498Z,55.43
2023-01-13T07:09:36.486Z,55.43
2023-01-13T07:10:36.477Z,55.33
2023-01-13T07:11:36.487Z,55.71
2023-01-13T07:14:36.489Z,55.52
2023-01-13T07:15:34.777Z,54.94
2023-01-13T07:16:34.864Z,55.49
2023-01-13T07:17:36.493Z,55.90
2023-01-13T07:18:36.504Z,55.52
2023-01-13T07:19:34.754Z,54.85
2023-01-13T07:20:36.509Z,55.59
2023-01-13T07:21:36.506Z,55.49
2023-01-13T07:22:36.487Z,55.23
2023-01-13T07:23:36.506Z,55.30
2023-01-13T07:24:36.496Z,55.01
2023-01-13T07:25:36.496Z,55.11
2023-01-13T07:26:36.484Z,55.30
2023-01-13T07:27:34.815Z,55.20
2023-01-13T07:28:36.526Z,55.20
2023-01-13T07:29:36.506Z,55.01
2023-01-13T07:30:36.490Z,55.59
2023-01-13T07:31:36.560Z,55.49
2023-01-13T07:32:36.491Z,55.49
2023-01-13T07:33:36.538Z,55.20
2023-01-13T07:34:36.510Z,55.78
2023-01-13T07:35:36.491Z,55.68
2023-01-13T07:36:36.506Z,54.91
2023-01-13T07:37:36.545Z,55.01
2023-01-13T07:38:36.500Z,54.82
2023-01-13T07:39:36.507Z,55.98
2023-01-13T07:40:36.503Z,54.72
2023-01-13T07:41:36.498Z,55.30
2023-01-13T07:42:36.533Z,54.91
2023-01-13T07:43:36.500Z,55.20
2023-01-13T07:44:36.544Z,54.82
2023-01-13T07:45:36.576Z,54.63
2023-01-13T07:46:34.626Z,54.72
2023-01-13T07:47:34.627Z,55.20
2023-01-13T07:48:36.517Z,54.82
2023-01-13T07:49:34.618Z,55.30
2023-01-13T07:50:34.632Z,55.40
2023-01-13T07:51:34.671Z,55.59
2023-01-13T07:53:36.520Z,54.72
2023-01-13T07:54:40.781Z,54.72
2023-01-13T07:55:34.598Z,54.82
2023-01-13T07:56:36.520Z,55.40
2023-01-13T07:57:36.539Z,55.20
2023-01-13T07:58:35.585Z,55.20
2023-01-13T07:59:36.530Z,55.20
2023-01-13T08:00:36.540Z,55.11
2023-01-13T08:01:36.626Z,55.01
2023-01-13T08:02:36.534Z,54.43
2023-01-13T08:03:36.517Z,55.01
2023-01-13T08:04:36.567Z,54.91
2023-01-13T08:05:36.521Z,54.91
2023-01-13T08:06:36.555Z,54.53
2023-01-13T08:07:35.533Z,55.11
2023-01-13T08:08:36.052Z,55.01
2023-01-13T08:09:36.057Z,55.01
2023-01-13T08:10:34.519Z,54.53
2023-01-13T08:11:36.042Z,54.63
2023-01-13T08:12:36.032Z,54.91
2023-01-13T08:13:36.049Z,54.72
2023-01-13T08:14:36.083Z,54.53
2023-01-13T08:15:34.498Z,54.53
2023-01-13T08:16:34.552Z,54.53
2023-01-13T08:17:34.492Z,54.82
2023-01-13T08:18:35.550Z,54.63
2023-01-13T08:19:34.496Z,54.91
2023-01-13T08:20:34.472Z,54.43
2023-01-13T08:21:36.063Z,54.91
2023-01-13T08:22:37.493Z,54.91
2023-01-13T08:23:36.053Z,55.01
2023-01-13T08:24:36.065Z,54.82
2023-01-13T08:25:36.037Z,54.34
2023-01-13T08:26:36.044Z,54.34
2023-01-13T08:27:36.032Z,54.43
2023-01-13T08:28:36.033Z,54.56
2023-01-13T08:29:36.058Z,54.53
2023-01-13T08:30:34.571Z,54.43
2023-01-13T08:31:37.490Z,54.43
2023-01-13T08:32:35.378Z,54.72
2023-01-13T08:33:36.085Z,54.34
2023-01-13T08:34:36.074Z,54.34
2023-01-13T08:35:36.262Z,54.43
2023-01-13T08:36:34.391Z,54.75
2023-01-13T08:37:34.396Z,54.24
2023-01-13T08:38:34.411Z,54.56
2023-01-13T08:39:36.105Z,54.27
2023-01-13T08:40:34.382Z,54.14
2023-01-13T08:41:34.368Z,54.17
2023-01-13T08:42:36.058Z,54.65
2023-01-13T08:43:34.362Z,54.17
2023-01-13T08:44:36.112Z,54.65
2023-01-13T08:45:34.571Z,54.75
2023-01-13T08:46:34.511Z,54.75
2023-01-13T08:47:34.335Z,54.65
2023-01-13T08:48:36.081Z,54.17
2023-01-13T08:49:34.347Z,54.46
2023-01-13T08:50:34.356Z,54.46
2023-01-13T08:51:34.332Z,54.46
2023-01-13T08:52:35.584Z,54.46
2023-01-13T08:53:34.350Z,54.08
2023-01-13T08:54:36.077Z,54.08
2023-01-13T08:55:34.318Z,54.08
2023-01-13T08:56:35.641Z,53.98
2023-01-13T08:57:36.122Z,54.08
2023-01-13T08:58:36.531Z,54.34
2023-01-13T08:59:34.299Z,54.34
2023-01-13T09:00:35.306Z,54.46
2023-01-13T09:01:36.199Z,53.98
2023-01-13T09:02:36.112Z,53.98
2023-01-13T09:03:36.094Z,53.98
2023-01-13T09:04:34.322Z,54.56
2023-01-13T09:05:36.080Z,53.98
2023-01-13T09:06:36.067Z,53.98
2023-01-13T09:07:35.663Z,53.98
2023-01-13T09:08:35.269Z,54.27
2023-01-13T09:09:35.249Z,53.78
2023-01-13T09:10:36.087Z,53.78
2023-01-13T09:11:36.115Z,54.08
2023-01-13T09:12:34.260Z,53.78
2023-01-13T09:13:36.105Z,54.08
2023-01-13T09:14:34.249Z,53.78
2023-01-13T09:15:34.316Z,53.88
2023-01-13T09:16:35.355Z,54.17
2023-01-13T09:17:35.617Z,53.78
2023-01-13T09:18:34.223Z,54.27
2023-01-13T09:19:36.111Z,53.98
2023-01-13T09:20:34.219Z,53.88
2023-01-13T09:21:36.101Z,54.17
2023-01-13T09:22:36.112Z,53.88
2023-01-13T09:23:34.182Z,53.78
2023-01-13T09:24:36.088Z,54.17
2023-01-13T09:25:36.105Z,54.08
2023-01-13T09:26:34.182Z,54.08
2023-01-13T09:27:36.088Z,53.98
2023-01-13T09:28:34.248Z,53.59
2023-01-13T09:29:36.088Z,54.17
2023-01-13T09:30:36.611Z,54.17
2023-01-13T09:31:35.148Z,53.98
2023-01-13T09:33:36.104Z,53.88
2023-01-13T09:34:35.153Z,54.17
2023-01-13T09:35:36.092Z,53.88
2023-01-13T09:36:36.101Z,53.88
2023-01-13T09:37:36.115Z,54.08
2023-01-13T09:38:35.118Z,53.88
2023-01-13T09:39:34.105Z,54.17
2023-01-13T09:40:34.105Z,54.27
2023-01-13T09:41:35.630Z,54.17
2023-01-13T09:42:35.618Z,54.27
2023-01-13T09:43:34.085Z,53.69
2023-01-13T09:44:34.093Z,53.69
2023-01-13T09:45:34.077Z,53.78
2023-01-13T09:46:34.110Z,53.78
2023-01-13T09:47:34.081Z,54.08
2023-01-13T09:48:35.633Z,53.78
2023-01-13T09:49:34.101Z,53.78
2023-01-13T09:50:34.060Z,53.69
2023-01-13T09:51:34.088Z,53.69
2023-01-13T09:52:35.631Z,53.59
2023-01-13T09:53:34.056Z,53.78
2023-01-13T09:54:34.054Z,53.69
2023-01-13T09:55:35.643Z,53.88
2023-01-13T09:56:34.056Z,53.88
2023-01-13T09:57:34.050Z,53.78
2023-01-13T09:58:35.669Z,53.40
2023-01-13T09:59:35.621Z,53.69
2023-01-13T10:00:35.614Z,53.98
2023-01-13T10:01:35.608Z,54.10
2023-01-13T10:02:35.625Z,54.10
2023-01-13T10:13:51.047Z,53.23
2023-01-13T10:14:49.022Z,52.95
2023-01-13T10:15:49.032Z,53.14
2023-01-13T10:16:49.003Z,52.85
2023-01-13T10:18:50.512Z,52.95
2023-01-13T10:20:50.504Z,53.14
2023-01-13T10:21:50.511Z,53.05
2023-01-13T10:22:50.628Z,53.14
2023-01-13T10:23:50.506Z,52.95
2023-01-13T10:24:49.225Z,52.85
2023-01-13T10:25:50.700Z,52.95
2023-01-13T10:26:50.777Z,53.07
2023-01-13T10:27:50.523Z,52.87
2023-01-13T10:28:48.966Z,53.07
2023-01-13T10:29:50.541Z,53.07
2023-01-13T10:30:49.033Z,53.17
2023-01-13T10:31:49.005Z,52.78
2023-01-13T10:32:49.310Z,53.17
2023-01-13T10:33:48.927Z,53.17
2023-01-13T10:34:50.021Z,52.87
2023-01-13T10:35:50.514Z,52.78
2023-01-13T10:36:48.953Z,52.78
2023-01-13T10:37:48.958Z,53.07
2023-01-13T10:38:50.242Z,52.87
2023-01-13T10:39:48.897Z,53.17
2023-01-13T10:40:48.894Z,53.17
2023-01-13T10:41:48.935Z,52.59
2023-01-13T10:42:51.064Z,52.87
2023-01-13T10:43:48.885Z,52.97
2023-01-13T10:44:50.560Z,52.78
2023-01-13T10:45:48.958Z,52.59
2023-01-13T10:46:49.065Z,52.49
2023-01-13T10:47:50.567Z,52.78
2023-01-13T10:48:49.060Z,52.87
2023-01-13T10:49:50.536Z,52.87
2023-01-13T10:50:48.870Z,52.49
2023-01-13T10:51:48.860Z,52.78
2023-01-13T10:52:50.521Z,52.59
2023-01-13T10:53:50.532Z,52.78
2023-01-13T10:54:48.907Z,52.78
2023-01-13T10:55:52.988Z,52.49
2023-01-13T10:56:48.843Z,52.87
2023-01-13T10:57:50.533Z,52.59
2023-01-13T10:59:48.829Z,52.87
2023-01-13T11:00:50.561Z,52.49
2023-01-13T11:01:48.836Z,52.49
2023-01-13T11:02:50.581Z,52.49
2023-01-13T11:03:50.542Z,52.11
2023-01-13T11:04:49.863Z,52.69
2023-01-13T11:05:50.554Z,52.20
2023-01-13T11:06:50.537Z,52.52
2023-01-13T11:07:50.555Z,52.59
2023-01-13T11:08:50.535Z,52.30
2023-01-13T11:09:50.547Z,52.20
2023-01-13T11:10:50.539Z,52.61
2023-01-13T11:11:48.787Z,52.23
2023-01-13T11:13:48.775Z,52.23
2023-01-13T11:14:50.057Z,52.23
2023-01-13T11:15:48.793Z,52.42
2023-01-13T11:16:53.558Z,52.23
2023-01-13T11:17:50.539Z,52.42
2023-01-13T11:18:48.819Z,52.13
2023-01-13T11:19:50.576Z,52.13
2023-01-13T11:20:50.549Z,52.52
2023-01-13T11:21:50.541Z,52.52
2023-01-13T11:22:50.540Z,52.13
2023-01-13T11:23:50.542Z,51.94
2023-01-13T11:24:51.037Z,52.71
2023-01-13T11:25:50.553Z,52.61
2023-01-13T11:26:50.588Z,52.52
2023-01-13T11:27:50.554Z,52.42
2023-01-13T11:28:50.720Z,52.13
2023-01-13T11:29:50.565Z,52.04
2023-01-13T11:30:50.899Z,52.13
2023-01-13T11:31:50.565Z,52.13
2023-01-13T11:32:50.559Z,52.13
2023-01-13T11:33:50.563Z,52.04
2023-01-13T11:34:50.556Z,52.13
2023-01-13T11:35:50.614Z,52.04
2023-01-13T11:37:50.555Z,52.04
2023-01-13T11:38:50.559Z,52.23
2023-01-13T11:39:50.578Z,52.04
2023-01-13T11:40:50.561Z,52.13
2023-01-13T11:41:50.558Z,52.13
2023-01-13T11:42:50.558Z,52.01
2023-01-13T11:43:50.567Z,52.01
2023-01-13T11:44:50.069Z,52.01
2023-01-13T11:45:50.582Z,51.94
2023-01-13T11:46:50.700Z,52.04
2023-01-13T11:47:50.074Z,52.11
2023-01-13T11:48:48.666Z,52.11
2023-01-13T11:49:50.144Z,52.01
2023-01-13T11:50:48.643Z,52.30
2023-01-13T11:51:50.569Z,52.11
2023-01-13T11:52:50.565Z,52.01
2023-01-13T11:53:50.729Z,52.01
2023-01-13T11:54:50.574Z,52.01
2023-01-13T11:55:50.079Z,52.20
2023-01-13T11:56:50.580Z,52.11
2023-01-13T11:57:50.585Z,52.20
2023-01-13T11:58:51.479Z,52.11
2023-01-13T11:59:49.801Z,52.20
2023-01-13T12:00:48.615Z,52.11
2023-01-13T12:01:50.652Z,52.20
2023-01-13T12:02:50.606Z,52.01
2023-01-13T12:03:50.597Z,52.11
2023-01-13T12:04:50.600Z,52.01
2023-01-13T12:05:49.580Z,52.20
2023-01-13T12:06:50.095Z,52.20
2023-01-13T12:07:50.079Z,52.11
2023-01-13T12:08:50.147Z,52.11
2023-01-13T12:09:51.141Z,52.11
2023-01-13T12:10:50.098Z,52.20
2023-01-13T12:11:50.084Z,52.11
2023-01-13T12:12:49.607Z,52.30
2023-01-13T12:13:49.573Z,52.01
2023-01-13T12:14:48.587Z,52.01
2023-01-13T12:15:50.364Z,52.01
2023-01-13T12:16:48.783Z,52.11
2023-01-13T12:17:50.137Z,52.20
2023-01-13T12:18:48.575Z,52.20
2023-01-13T12:19:48.543Z,52.49
2023-01-13T12:20:48.782Z,52.01
2023-01-13T12:21:50.111Z,52.01
2023-01-13T12:22:48.558Z,52.59
2023-01-13T12:23:50.092Z,52.49
2023-01-13T12:24:48.515Z,52.49
2023-01-13T12:25:50.110Z,52.49
2023-01-13T12:26:50.123Z,52.11
2023-01-13T12:27:48.502Z,52.01
2023-01-13T12:28:48.611Z,52.11
2023-01-13T12:29:50.105Z,52.11
2023-01-13T12:30:48.489Z,52.01
2023-01-13T12:31:50.223Z,52.20
2023-01-13T12:32:50.127Z,52.01
2023-01-13T12:33:50.100Z,52.49
2023-01-13T12:34:50.101Z,52.59
2023-01-13T12:35:50.112Z,52.01
2023-01-13T12:36:50.134Z,51.92
2023-01-13T12:37:50.104Z,52.01
2023-01-13T12:38:50.104Z,51.92
2023-01-13T12:39:50.137Z,52.49
2023-01-13T12:40:50.117Z,52.49
2023-01-13T12:41:50.131Z,52.49
2023-01-13T12:42:50.111Z,52.49
2023-01-13T12:43:50.110Z,52.49
2023-01-13T12:44:50.122Z,52.49
2023-01-13T12:45:50.157Z,51.92
2023-01-13T12:46:50.134Z,52.40
2023-01-13T12:47:50.112Z,52.49
2023-01-13T12:48:50.116Z,52.69
2023-01-13T12:49:50.129Z,52.30
2023-01-13T12:50:50.117Z,52.01
2023-01-13T12:51:50.134Z,52.20
2023-01-13T12:52:48.414Z,52.49
2023-01-13T12:53:50.124Z,52.11
2023-01-13T12:54:50.121Z,52.59
2023-01-13T12:55:50.142Z,51.92
2023-01-13T12:56:50.223Z,52.59
2023-01-13T12:57:50.121Z,52.01
2023-01-13T12:58:50.188Z,52.20
2023-01-13T12:59:50.137Z,52.01
2023-01-13T13:00:50.426Z,52.49
2023-01-13T13:01:50.303Z,52.59
2023-01-13T13:02:50.463Z,52.20
2023-01-13T13:03:50.129Z,52.59
2023-01-13T13:04:50.140Z,52.59
2023-01-13T13:05:50.130Z,52.59
2023-01-13T13:06:50.140Z,52.49
2023-01-13T13:07:48.349Z,52.11
2023-01-13T13:08:48.377Z,52.01
2023-01-13T13:09:48.346Z,52.49
2023-01-13T13:10:48.346Z,51.92
2023-01-13T13:11:48.331Z,52.11
2023-01-13T13:12:50.184Z,52.49
2023-01-13T13:13:48.332Z,52.11
2023-01-13T13:14:48.410Z,52.01
2023-01-13T13:15:48.315Z,52.01
2023-01-13T13:16:48.455Z,52.01
2023-01-13T13:17:48.468Z,52.49
2023-01-13T13:18:50.154Z,52.11
2023-01-13T13:19:50.154Z,52.49
2023-01-13T13:20:48.297Z,52.11
2023-01-13T13:21:48.290Z,52.01
2023-01-13T13:22:48.285Z,52.20
2023-01-13T13:23:48.498Z,52.59
2023-01-13T13:24:50.167Z,52.11
2023-01-13T13:25:50.149Z,52.49
2023-01-13T13:26:48.270Z,52.49
2023-01-13T13:27:48.265Z,52.01
2023-01-13T13:28:48.256Z,52.01
2023-01-13T13:29:50.264Z,52.11
2023-01-13T13:30:50.177Z,52.01
2023-01-13T13:31:50.149Z,52.11
2023-01-13T13:32:50.154Z,52.11
2023-01-13T13:33:50.152Z,52.01
2023-01-13T13:34:50.166Z,52.40
2023-01-13T13:35:48.240Z,52.11
2023-01-13T13:36:50.174Z,52.49
2023-01-13T13:37:50.160Z,52.59
2023-01-13T13:38:48.220Z,52.01
2023-01-13T13:39:50.181Z,52.11
2023-01-13T13:40:50.168Z,52.01
2023-01-13T13:41:50.170Z,52.40
2023-01-13T13:42:50.160Z,52.01
2023-01-13T13:43:48.207Z,52.49
2023-01-13T13:44:50.177Z,52.49
2023-01-13T13:45:48.247Z,52.11
2023-01-13T13:46:48.248Z,52.01
2023-01-13T13:47:50.173Z,52.69
2023-01-13T13:48:48.184Z,52.40
2023-01-13T13:49:48.175Z,52.30
2023-01-13T13:50:48.177Z,52.40
2023-01-13T13:51:48.196Z,52.56
2023-01-13T13:52:49.680Z,51.89
2023-01-13T13:53:48.168Z,52.18
2023-01-13T13:54:48.152Z,52.20
2023-01-13T13:55:48.149Z,51.92
2023-01-13T13:56:49.709Z,52.49
2023-01-13T13:57:48.144Z,52.49
2023-01-13T13:58:49.688Z,52.01
2023-01-13T13:59:48.141Z,52.47
2023-01-13T14:00:49.691Z,52.11
2023-01-13T14:01:48.194Z,52.27
2023-01-13T14:02:49.680Z,52.20
2023-01-13T14:03:48.124Z,52.49
2023-01-13T14:04:49.738Z,52.11
2023-01-13T14:05:49.683Z,52.11
2023-01-13T14:06:49.685Z,52.30
2023-01-13T14:07:49.693Z,52.11
2023-01-13T14:08:49.646Z,52.11
2023-01-13T14:09:49.668Z,52.01
2023-01-13T14:10:49.704Z,52.01
2023-01-13T14:11:49.645Z,52.01
2023-01-13T14:12:49.671Z,52.01
2023-01-13T14:13:49.658Z,52.01
2023-01-13T14:14:49.648Z,52.08
2023-01-13T14:15:49.720Z,52.20
2023-01-13T14:16:48.025Z,52.20
2023-01-13T14:17:48.031Z,52.11
2023-01-13T14:18:48.011Z,52.11
2023-01-13T14:19:49.663Z,52.08
2023-01-13T14:20:48.007Z,52.18
2023-01-13T14:21:47.996Z,52.20
2023-01-13T14:22:47.991Z,52.01
2023-01-13T14:23:47.985Z,52.01
2023-01-13T14:24:49.170Z,52.01
2023-01-13T14:25:47.984Z,52.11
2023-01-13T14:26:47.972Z,52.11
2023-01-13T14:27:47.964Z,52.11
2023-01-13T14:28:49.710Z,52.11
2023-01-13T14:29:49.641Z,52.11
2023-01-13T14:30:49.681Z,52.01
2023-01-13T14:31:49.646Z,52.01
2023-01-13T14:32:49.641Z,52.01
2023-01-13T14:33:49.713Z,52.01
2023-01-13T14:34:49.646Z,52.11
2023-01-13T14:35:49.639Z,52.11
2023-01-13T14:36:49.658Z,52.08
2023-01-13T14:37:49.644Z,52.11
2023-01-13T14:38:49.660Z,51.98
2023-01-13T14:39:49.640Z,51.98
2023-01-13T14:40:49.655Z,51.98
2023-01-13T14:41:49.641Z,52.11
2023-01-13T14:42:49.643Z,52.08
2023-01-13T14:43:49.673Z,52.08
2023-01-13T14:44:49.654Z,51.89
2023-01-13T14:45:49.640Z,52.08
2023-01-13T14:46:49.637Z,52.08
2023-01-13T14:47:49.168Z,52.18
2023-01-13T14:48:47.872Z,51.89
2023-01-13T14:49:49.661Z,51.89
2023-01-13T14:50:47.865Z,52.08
2023-01-13T14:51:47.905Z,51.98
2023-01-13T14:52:47.854Z,51.98
2023-01-13T14:53:49.167Z,52.08
2023-01-13T14:54:47.853Z,51.98
2023-01-13T14:55:49.163Z,51.98
2023-01-13T14:56:47.833Z,52.08
2023-01-13T14:57:47.845Z,52.08
2023-01-13T14:58:47.839Z,52.08
2023-01-13T14:59:49.646Z,51.98
2023-01-13T15:00:49.725Z,51.98
2023-01-13T15:01:47.863Z,52.08
2023-01-13T15:02:49.762Z,52.18
2023-01-13T15:03:49.690Z,52.08
2023-01-13T15:04:49.661Z,51.98
2023-01-13T15:05:48.808Z,51.98
2023-01-13T15:06:47.784Z,51.98
2023-01-13T15:07:49.669Z,52.27
2023-01-13T15:08:49.176Z,51.98
2023-01-13T15:09:48.774Z,51.98
2023-01-13T15:10:49.177Z,51.98
2023-01-13T15:11:49.655Z,51.98
2023-01-13T15:12:49.680Z,51.89
2023-01-13T15:13:52.810Z,51.98
2023-01-13T15:14:49.660Z,51.98
2023-01-13T15:15:47.788Z,51.98
2023-01-13T15:16:49.694Z,51.98
2023-01-13T15:17:49.661Z,52.08
2023-01-13T15:18:47.739Z,51.98
2023-01-13T15:19:49.665Z,52.18
2023-01-13T15:20:49.187Z,52.08
2023-01-13T15:21:47.718Z,51.98
2023-01-13T15:22:47.732Z,51.98
2023-01-13T15:23:47.709Z,51.98
2023-01-13T15:24:49.184Z,51.98
2023-01-13T15:25:47.722Z,51.98
2023-01-13T15:26:49.685Z,51.98
2023-01-13T15:27:47.701Z,52.08
2023-01-13T15:28:47.698Z,52.08
2023-01-13T15:29:47.689Z,52.08
2023-01-13T15:30:48.672Z,51.98
2023-01-13T15:31:49.183Z,52.08
2023-01-13T15:32:48.711Z,52.08
2023-01-13T15:33:49.180Z,52.08
2023-01-13T15:34:48.695Z,52.08
2023-01-13T15:35:49.273Z,52.47
2023-01-13T15:36:49.178Z,52.18
2023-01-13T15:37:48.647Z,51.98
2023-01-13T15:38:49.178Z,52.54
2023-01-13T15:39:48.638Z,52.06
2023-01-13T15:40:49.241Z,51.89
2023-01-13T15:41:49.178Z,52.44
2023-01-13T15:42:49.180Z,52.44
2023-01-13T15:43:49.184Z,52.44
2023-01-13T15:44:49.220Z,51.96
2023-01-13T15:45:49.214Z,52.44
2023-01-13T15:46:49.243Z,51.96
2023-01-13T15:47:49.194Z,52.54
2023-01-13T15:48:53.121Z,51.96
2023-01-13T15:49:49.187Z,52.56
2023-01-13T15:50:49.205Z,52.54
2023-01-13T15:51:49.203Z,52.54
2023-01-13T15:52:49.208Z,52.63
2023-01-13T15:53:49.194Z,51.96
2023-01-13T15:54:49.241Z,52.25
2023-01-13T15:55:49.199Z,52.54
2023-01-13T15:56:49.211Z,51.96
2023-01-13T15:57:49.192Z,52.06
2023-01-13T15:58:49.191Z,52.34
2023-01-13T15:59:48.551Z,52.15
2023-01-13T16:00:48.591Z,52.63
2023-01-13T16:13:11.294Z,52.34
2023-01-13T16:14:11.228Z,51.76
2023-01-13T16:15:11.216Z,52.06
2023-01-13T16:16:11.265Z,52.15
2023-01-13T16:17:11.210Z,52.06
2023-01-13T16:18:11.192Z,52.06
2023-01-13T16:19:11.759Z,52.06
2023-01-13T16:20:12.260Z,51.96
2023-01-13T16:21:11.187Z,52.06
2023-01-13T16:22:13.587Z,52.15
2023-01-13T16:23:11.178Z,52.44
2023-01-13T16:24:11.275Z,52.44
2023-01-13T16:25:11.272Z,52.15
2023-01-13T16:26:10.175Z,52.54
2023-01-13T16:27:10.161Z,52.54
2023-01-13T16:28:11.728Z,52.44
2023-01-13T16:29:10.191Z,52.54
2023-01-13T16:30:10.167Z,52.54
2023-01-13T16:31:11.336Z,52.44
2023-01-13T16:32:10.189Z,52.06
2023-01-13T16:33:11.296Z,52.34
2023-01-13T16:34:10.152Z,52.54
2023-01-13T16:35:11.309Z,52.54
2023-01-13T16:36:12.198Z,52.25
2023-01-13T16:37:11.798Z,52.44
2023-01-13T16:38:11.797Z,52.63
2023-01-13T16:39:11.801Z,52.15
2023-01-13T16:40:11.820Z,52.44
2023-01-13T16:41:11.807Z,52.15
2023-01-13T16:42:11.811Z,52.44
2023-01-13T16:43:11.829Z,52.25
2023-01-13T16:44:11.816Z,52.44
2023-01-13T16:45:11.849Z,52.63
2023-01-13T16:46:11.816Z,52.15
2023-01-13T16:47:11.823Z,52.15
2023-01-13T16:48:11.822Z,52.06
2023-01-13T16:49:11.841Z,52.15
2023-01-13T16:50:11.829Z,52.54
2023-01-13T16:51:11.827Z,52.54
2023-01-13T16:52:11.830Z,52.34
2023-01-13T16:53:11.837Z,52.44
2023-01-13T16:54:11.437Z,52.15
2023-01-13T16:55:11.838Z,52.54
2023-01-13T16:56:11.836Z,52.63
2023-01-13T16:57:11.838Z,52.06
2023-01-13T16:58:11.859Z,52.25
2023-01-13T16:59:11.851Z,52.54
2023-01-13T17:00:11.844Z,52.25
2023-01-13T17:01:11.931Z,52.34
2023-01-13T17:02:11.864Z,52.25
2023-01-13T17:03:10.091Z,52.06
2023-01-13T17:04:10.036Z,52.06
2023-01-13T17:05:11.034Z,52.06
2023-01-13T17:06:11.054Z,52.06
2023-01-13T17:07:11.880Z,52.06
2023-01-13T17:08:11.019Z,52.34
2023-01-13T17:09:11.848Z,52.06
2023-01-13T17:10:11.876Z,52.06
2023-01-13T17:12:11.853Z,52.54
2023-01-13T17:13:16.264Z,52.54
2023-01-13T17:14:18.929Z,52.44
2023-01-13T17:15:11.887Z,52.34
2023-01-13T17:16:11.887Z,52.25
2023-01-13T17:17:11.886Z,52.15
2023-01-13T17:18:11.865Z,52.34
2023-01-13T17:19:11.858Z,52.25
2023-01-13T17:20:11.871Z,52.25
2023-01-13T17:21:11.854Z,52.34
2023-01-13T17:22:11.885Z,52.15
2023-01-13T17:23:11.956Z,52.44